Portada
METAR-TAF:

METAR-TAF

Aeroports :

Somerset Airport

Somerville, Nova Jersey, Estats Units d'Amèrica

latitud: 40-37-26N, longitud: 074-40-10W, altitud: 32 m

Observació

L'informe es va fer fa 47 minuts, a les 17:53 UTC
Vent 7 kt del Sud
Temperatura 26°C
Humitat 65%
Pressió 1009 hPa
Visibilitat: 14.5 km
Cel ennuvolat a una alçada de 6000 ft
Cel ennuvolat a una alçada de 9000 ft

METAR: KSMQ 161753Z AUTO 18007KT 9SM BKN060 BKN090 26/19 A2981 RMK AO2 SLP095 60000 T02560189 10261 20200 58014

Hora: 14:40 (18:40 UTC)


TAF: manca

Observacions i pronòstics meteorològics de més de 4000 aeroports (METAR i TAF).

Les estacions disponibles són els punts grocs i vermells al mapa.

Posi el ratolí al punt desitjat per veure el nom de l'estació.

Feu clic per veure les observacions i els pronòstics meteorològics.

Per canviar el mapa: feu clic els botons verds amb una creu de color negre per apropar; al botó verd amb un guió per allunyar la imatge; o en les fletxes verdes per a mapes adjacents.


METAR-TAF: